Time;durP1;ratioP1;P1;durP2;ratioP2;P2;SDS_P1;SDS_P2;PMS_P1;PMS_P2;Temp;Humidity;BMP_temperature;BMP_pressure;BME280_temperature;BME280_humidity;BME280_pressure;Samples;Min_cycle;Max_cycle;Signal;HPM_P1;HPM_P2
2022/03/18 00:01:38;;;;;;;4.53;2.97;;;;;;;;;;4545623;28;20115;-64
2022/03/18 00:03:48;;;;;;;6.13;3.03;;;;;;;;;;4548074;28;20044;-66
2022/03/18 00:05:59;;;;;;;5.87;3.30;;;;;;;;;;4546205;28;20908;-66
2022/03/18 00:08:10;;;;;;;5.73;3.27;;;;;;;;;;4545949;28;20028;-66
2022/03/18 00:10:21;;;;;;;6.68;3.30;;;;;;;;;;4545201;28;20028;-66
2022/03/18 00:12:31;;;;;;;7.63;3.20;;;;;;;;;;4543217;28;20489;-66
2022/03/18 00:14:42;;;;;;;5.17;3.30;;;;;;;;;;4545303;28;20044;-66
2022/03/18 00:16:53;;;;;;;4.80;3.22;;;;;;;;;;4545570;28;20036;-66
2022/03/18 00:19:03;;;;;;;7.07;3.37;;;;;;;;;;4543362;28;23934;-66
2022/03/18 00:21:14;;;;;;;5.80;2.93;;;;;;;;;;4529700;28;20034;-65
2022/03/18 00:23:25;;;;;;;5.35;3.25;;;;;;;;;;4530204;28;20038;-66
2022/03/18 00:25:35;;;;;;;6.30;2.93;;;;;;;;;;4546326;28;20028;-66
2022/03/18 00:27:46;;;;;;;7.33;3.50;;;;;;;;;;4559725;28;20033;-66
2022/03/18 00:29:58;;;;;;;5.32;2.83;;;;;;;;;;4529234;28;20029;-66
2022/03/18 00:32:10;;;;;;;5.78;3.00;;;;;;;;;;4545344;28;20777;-66
2022/03/18 00:34:21;;;;;;;5.80;3.00;;;;;;;;;;4542113;28;35352;-66
2022/03/18 00:36:31;;;;;;;6.37;3.13;;;;;;;;;;4546348;28;20036;-66
2022/03/18 00:38:43;;;;;;;3.87;2.53;;;;;;;;;;4543758;28;29296;-66
2022/03/18 00:40:56;;;;;;;4.22;2.72;;;;;;;;;;4522604;28;20033;-65
2022/03/18 00:43:06;;;;;;;6.40;2.60;;;;;;;;;;4546417;28;20110;-66
2022/03/18 00:45:16;;;;;;;4.40;2.80;;;;;;;;;;4545892;28;20031;-66
2022/03/18 00:52:24;;;;;;;5.65;3.10;;;;;;;;;;4544787;28;20144;-67
2022/03/18 00:54:39;;;;;;;6.20;2.70;;;;;;;;;;4545276;28;35962;-66
2022/03/18 00:56:50;;;;;;;4.75;2.80;;;;;;;;;;4545245;28;20036;-66
2022/03/18 00:59:00;;;;;;;4.60;3.00;;;;;;;;;;4544012;28;23921;-66
2022/03/18 01:01:11;;;;;;;5.97;3.10;;;;;;;;;;4544083;28;20140;-66
2022/03/18 01:03:21;;;;;;;4.47;2.87;;;;;;;;;;4510025;28;20057;-66
2022/03/18 01:05:32;;;;;;;4.27;2.63;;;;;;;;;;4545043;28;20275;-66
2022/03/18 01:07:42;;;;;;;5.23;2.70;;;;;;;;;;4554092;28;20382;-66
2022/03/18 01:09:53;;;;;;;4.47;2.80;;;;;;;;;;4547909;28;20066;-65
2022/03/18 01:12:04;;;;;;;5.47;2.80;;;;;;;;;;4547466;28;37766;-66
2022/03/18 01:14:14;;;;;;;4.80;2.58;;;;;;;;;;4548380;28;20768;-66
2022/03/18 01:16:25;;;;;;;5.80;2.80;;;;;;;;;;4549429;28;20032;-65
2022/03/18 01:18:35;;;;;;;4.93;2.70;;;;;;;;;;4548437;28;20029;-65
2022/03/18 01:20:46;;;;;;;5.37;2.77;;;;;;;;;;4547213;28;20444;-65
2022/03/18 01:22:56;;;;;;;3.83;2.37;;;;;;;;;;4546993;28;20746;-65
2022/03/18 01:25:07;;;;;;;5.43;2.80;;;;;;;;;;4548758;28;33550;-65
2022/03/18 01:27:18;;;;;;;5.70;2.50;;;;;;;;;;4547573;28;20037;-65
2022/03/18 01:29:28;;;;;;;4.93;2.63;;;;;;;;;;4547370;28;20095;-65
2022/03/18 01:31:38;;;;;;;5.00;2.90;;;;;;;;;;4547708;28;20116;-65
2022/03/18 01:33:49;;;;;;;4.40;2.50;;;;;;;;;;4547930;28;20026;-65
2022/03/18 01:36:00;;;;;;;3.40;2.17;;;;;;;;;;4547513;28;20045;-65
2022/03/18 01:38:10;;;;;;;3.23;2.27;;;;;;;;;;4547555;28;20124;-65
2022/03/18 01:40:21;;;;;;;4.23;2.40;;;;;;;;;;4548519;28;20040;-66
2022/03/18 01:42:31;;;;;;;3.50;2.00;;;;;;;;;;4547752;28;20032;-65
2022/03/18 01:44:43;;;;;;;3.90;2.20;;;;;;;;;;4547137;28;42452;-65
2022/03/18 01:46:54;;;;;;;2.13;1.60;;;;;;;;;;4544582;28;20033;-65
2022/03/18 01:49:05;;;;;;;2.33;1.60;;;;;;;;;;4545572;28;20036;-66
2022/03/18 01:51:16;;;;;;;1.83;1.15;;;;;;;;;;4548033;28;20037;-65
2022/03/18 01:53:27;;;;;;;3.13;1.10;;;;;;;;;;4548141;28;20045;-65
2022/03/18 01:55:38;;;;;;;1.90;1.03;;;;;;;;;;4546296;28;20028;-65
2022/03/18 01:57:48;;;;;;;1.40;1.03;;;;;;;;;;4546747;28;21065;-65
2022/03/18 01:59:58;;;;;;;2.63;1.50;;;;;;;;;;4547512;28;20111;-65
2022/03/18 02:02:09;;;;;;;0.80;0.70;;;;;;;;;;4547840;28;20039;-65
2022/03/18 02:04:20;;;;;;;0.73;0.73;;;;;;;;;;4546094;28;20033;-66
2022/03/18 02:06:30;;;;;;;0.70;0.70;;;;;;;;;;4546176;28;20079;-65
2022/03/18 02:08:44;;;;;;;0.83;0.80;;;;;;;;;;4545353;28;20393;-65
2022/03/18 02:10:56;;;;;;;1.15;0.88;;;;;;;;;;4545353;28;20716;-65
2022/03/18 02:13:06;;;;;;;1.30;1.10;;;;;;;;;;4547572;28;20027;-65
2022/03/18 02:15:17;;;;;;;1.00;0.90;;;;;;;;;;4547329;28;20094;-65
2022/03/18 02:17:27;;;;;;;2.00;1.23;;;;;;;;;;4528299;28;20079;-65
2022/03/18 02:19:39;;;;;;;1.87;1.17;;;;;;;;;;4545929;28;20405;-65
2022/03/18 02:21:53;;;;;;;2.28;1.10;;;;;;;;;;4545285;28;20516;-65
2022/03/18 02:24:04;;;;;;;1.85;1.30;;;;;;;;;;4545844;28;21136;-65
2022/03/18 02:26:15;;;;;;;2.67;1.30;;;;;;;;;;4545584;28;20106;-66
2022/03/18 02:28:26;;;;;;;2.63;1.50;;;;;;;;;;4548497;28;20035;-66
2022/03/18 02:30:36;;;;;;;2.17;1.60;;;;;;;;;;4547494;28;20039;-65
2022/03/18 02:32:47;;;;;;;4.13;1.83;;;;;;;;;;4546838;28;20029;-66
2022/03/18 02:34:57;;;;;;;2.97;1.60;;;;;;;;;;4545507;28;20494;-66
2022/03/18 02:37:08;;;;;;;2.53;1.70;;;;;;;;;;4547037;28;20032;-66
2022/03/18 02:39:18;;;;;;;2.17;1.70;;;;;;;;;;4546124;28;20025;-66
2022/03/18 02:41:29;;;;;;;3.50;1.80;;;;;;;;;;4546671;28;34216;-66
2022/03/18 02:43:39;;;;;;;3.00;1.87;;;;;;;;;;4548433;28;20024;-65
2022/03/18 02:45:50;;;;;;;2.53;1.60;;;;;;;;;;4546792;28;20086;-66
2022/03/18 02:48:00;;;;;;;1.70;1.60;;;;;;;;;;4547068;28;20374;-66
2022/03/18 02:50:11;;;;;;;2.57;1.80;;;;;;;;;;4545973;28;20040;-65
2022/03/18 02:52:21;;;;;;;2.47;1.73;;;;;;;;;;4547170;28;20029;-65
2022/03/18 02:54:33;;;;;;;2.13;1.67;;;;;;;;;;4543793;28;20021;-66
2022/03/18 02:56:43;;;;;;;3.85;1.83;;;;;;;;;;4546722;28;20051;-65
2022/03/18 02:58:54;;;;;;;2.47;1.80;;;;;;;;;;4546278;28;20037;-65
2022/03/18 03:01:04;;;;;;;3.73;1.90;;;;;;;;;;4545873;28;20532;-65
2022/03/18 03:03:15;;;;;;;3.47;1.60;;;;;;;;;;4545355;28;20365;-65
2022/03/18 03:08:00;;;;;;;2.53;1.67;;;;;;;;;;4548343;28;20520;-66
2022/03/18 03:10:11;;;;;;;2.03;1.75;;;;;;;;;;4546134;28;20039;-66
2022/03/18 03:12:22;;;;;;;2.47;2.00;;;;;;;;;;4554364;28;20028;-65
2022/03/18 03:14:32;;;;;;;2.17;1.60;;;;;;;;;;4537631;28;20045;-65
2022/03/18 03:16:42;;;;;;;2.57;1.60;;;;;;;;;;4545712;28;21425;-65
2022/03/18 03:18:53;;;;;;;1.97;1.70;;;;;;;;;;4544885;28;20029;-66
2022/03/18 03:21:03;;;;;;;2.67;1.63;;;;;;;;;;4528097;28;20033;-65
2022/03/18 03:23:15;;;;;;;1.77;1.50;;;;;;;;;;4545723;28;20033;-67
2022/03/18 03:25:25;;;;;;;3.15;2.03;;;;;;;;;;4543745;28;20040;-66
2022/03/18 03:27:36;;;;;;;1.73;1.57;;;;;;;;;;4544867;28;20877;-66
2022/03/18 03:29:47;;;;;;;4.20;2.00;;;;;;;;;;4545297;28;20033;-65
2022/03/18 03:31:58;;;;;;;2.53;1.90;;;;;;;;;;4544999;28;20044;-66
2022/03/18 03:34:08;;;;;;;3.43;2.03;;;;;;;;;;4546064;28;20598;-66
2022/03/18 03:36:19;;;;;;;2.10;1.90;;;;;;;;;;4547402;28;20143;-66
2022/03/18 03:38:29;;;;;;;1.80;1.70;;;;;;;;;;4544385;28;20039;-66
2022/03/18 03:40:41;;;;;;;2.40;1.70;;;;;;;;;;4545372;28;20709;-66
2022/03/18 03:42:53;;;;;;;2.75;1.60;;;;;;;;;;4548066;28;20132;-66
2022/03/18 03:45:03;;;;;;;2.15;1.77;;;;;;;;;;4546631;28;20044;-66
2022/03/18 03:47:14;;;;;;;2.00;1.70;;;;;;;;;;4544638;28;20052;-66
2022/03/18 03:49:25;;;;;;;2.23;1.77;;;;;;;;;;4544362;28;20400;-65
2022/03/18 03:51:35;;;;;;;2.10;1.70;;;;;;;;;;4545646;28;20446;-65
2022/03/18 03:53:45;;;;;;;3.07;1.87;;;;;;;;;;4544888;28;28396;-66
2022/03/18 03:55:56;;;;;;;3.93;2.00;;;;;;;;;;4513241;28;20033;-65
2022/03/18 03:58:07;;;;;;;2.37;1.90;;;;;;;;;;4546194;28;20036;-66
2022/03/18 04:00:17;;;;;;;2.15;1.65;;;;;;;;;;4545919;28;20124;-65
2022/03/18 04:02:28;;;;;;;3.07;2.10;;;;;;;;;;4544575;28;20064;-66
2022/03/18 04:04:38;;;;;;;2.77;1.93;;;;;;;;;;4545487;28;20080;-66
2022/03/18 04:06:49;;;;;;;2.13;1.60;;;;;;;;;;4546497;28;20427;-65
2022/03/18 04:09:00;;;;;;;3.25;1.50;;;;;;;;;;4545598;28;20109;-65
2022/03/18 04:11:10;;;;;;;3.10;1.43;;;;;;;;;;4544713;28;20029;-66
2022/03/18 04:13:21;;;;;;;2.23;1.60;;;;;;;;;;4545562;28;20029;-65
2022/03/18 04:15:31;;;;;;;2.00;1.70;;;;;;;;;;4546345;28;20037;-65
2022/03/18 04:17:43;;;;;;;2.10;1.63;;;;;;;;;;4544136;28;20048;-65
2022/03/18 04:19:54;;;;;;;2.28;1.60;;;;;;;;;;4542049;28;20116;-65
2022/03/18 04:22:05;;;;;;;2.23;1.50;;;;;;;;;;4545798;28;20836;-65
2022/03/18 04:24:15;;;;;;;2.63;1.60;;;;;;;;;;4544278;28;20047;-65
2022/03/18 04:26:25;;;;;;;2.63;1.70;;;;;;;;;;4543928;28;29581;-65
2022/03/18 04:28:36;;;;;;;2.70;1.77;;;;;;;;;;4543384;28;20040;-65
2022/03/18 04:30:46;;;;;;;2.40;1.60;;;;;;;;;;4545904;28;21294;-65
2022/03/18 04:32:57;;;;;;;2.23;1.60;;;;;;;;;;4543949;28;20117;-65
2022/03/18 04:35:09;;;;;;;2.63;1.73;;;;;;;;;;4545980;28;20033;-65
2022/03/18 04:37:20;;;;;;;2.67;1.80;;;;;;;;;;4547885;28;20123;-65
2022/03/18 04:39:30;;;;;;;4.27;1.90;;;;;;;;;;4544704;28;20120;-65
2022/03/18 04:41:41;;;;;;;3.53;1.97;;;;;;;;;;4544503;28;31500;-65
2022/03/18 04:43:51;;;;;;;2.37;1.70;;;;;;;;;;4546607;28;20064;-65
2022/03/18 04:46:02;;;;;;;2.00;1.70;;;;;;;;;;4548398;28;34020;-65
2022/03/18 04:48:12;;;;;;;3.27;1.70;;;;;;;;;;4546091;28;20033;-65
2022/03/18 04:50:23;;;;;;;2.87;1.60;;;;;;;;;;4547801;28;20048;-65
2022/03/18 04:52:33;;;;;;;3.23;1.70;;;;;;;;;;4547301;28;20037;-65
2022/03/18 04:54:44;;;;;;;3.00;1.60;;;;;;;;;;4548295;28;20033;-65
2022/03/18 04:59:23;;;;;;;3.75;1.70;;;;;;;;;;4548219;28;20665;-65
2022/03/18 05:01:33;;;;;;;3.30;1.87;;;;;;;;;;4533244;28;20067;-65
2022/03/18 05:03:46;;;;;;;4.23;1.80;;;;;;;;;;4547351;28;20028;-65
2022/03/18 05:05:56;;;;;;;3.17;1.90;;;;;;;;;;4545474;28;20037;-65
2022/03/18 05:08:08;;;;;;;3.00;2.10;;;;;;;;;;4545403;28;37020;-65
2022/03/18 05:10:19;;;;;;;2.92;1.83;;;;;;;;;;4539619;28;20631;-65
2022/03/18 05:12:31;;;;;;;2.50;1.70;;;;;;;;;;4546533;28;20024;-65
2022/03/18 05:14:42;;;;;;;2.65;1.80;;;;;;;;;;4547284;28;20789;-65
2022/03/18 05:16:52;;;;;;;3.03;1.93;;;;;;;;;;4551876;28;20036;-65
2022/03/18 05:19:03;;;;;;;2.60;1.63;;;;;;;;;;4548762;28;20178;-65
2022/03/18 05:21:14;;;;;;;2.33;1.73;;;;;;;;;;4547062;28;20029;-65
2022/03/18 05:23:24;;;;;;;2.55;1.85;;;;;;;;;;4547571;28;20365;-65
2022/03/18 05:25:35;;;;;;;3.83;1.70;;;;;;;;;;4547805;28;31837;-66
2022/03/18 05:27:45;;;;;;;3.20;1.70;;;;;;;;;;4545561;28;20413;-65
2022/03/18 05:29:56;;;;;;;2.63;1.87;;;;;;;;;;4547726;28;20033;-65
2022/03/18 05:32:07;;;;;;;2.93;1.60;;;;;;;;;;4547052;28;20033;-65
2022/03/18 05:34:17;;;;;;;2.55;1.60;;;;;;;;;;4547745;28;20098;-65
2022/03/18 05:36:28;;;;;;;4.23;1.47;;;;;;;;;;4549964;28;20056;-65
2022/03/18 05:38:38;;;;;;;2.23;1.63;;;;;;;;;;4548025;28;20362;-65
2022/03/18 05:40:49;;;;;;;3.70;1.80;;;;;;;;;;4547932;28;20045;-65
2022/03/18 05:42:59;;;;;;;2.40;1.83;;;;;;;;;;4547009;28;20487;-65
2022/03/18 05:45:10;;;;;;;2.10;1.73;;;;;;;;;;4547668;28;20135;-65
2022/03/18 05:47:20;;;;;;;2.73;1.93;;;;;;;;;;4547882;28;20143;-65
2022/03/18 05:49:31;;;;;;;2.80;1.77;;;;;;;;;;4545978;28;34338;-66
2022/03/18 05:51:41;;;;;;;3.10;1.73;;;;;;;;;;4545847;28;20489;-65
2022/03/18 05:53:52;;;;;;;3.03;1.83;;;;;;;;;;4546014;28;20037;-66
2022/03/18 05:58:31;;;;;;;3.47;1.77;;;;;;;;;;4546657;28;20041;-66
2022/03/18 06:00:43;;;;;;;2.17;1.57;;;;;;;;;;4547738;28;25979;-66
2022/03/18 06:02:53;;;;;;;;;;;;;;;;;;4548346;28;20028;-66
2022/03/18 06:05:04;;;;;;;2.33;1.67;;;;;;;;;;4546764;28;20507;-66
2022/03/18 06:07:14;;;;;;;2.13;1.57;;;;;;;;;;4545592;28;20036;-66
2022/03/18 06:11:54;;;;;;;2.70;1.75;;;;;;;;;;4545404;28;21162;-66
2022/03/18 06:14:07;;;;;;;2.50;1.60;;;;;;;;;;4544425;28;20075;-66
2022/03/18 06:16:18;;;;;;;2.63;1.80;;;;;;;;;;4545534;28;20139;-66
2022/03/18 06:18:28;;;;;;;3.10;1.80;;;;;;;;;;4545337;28;20037;-65
2022/03/18 06:20:38;;;;;;;1.73;1.57;;;;;;;;;;4545815;28;39805;-66
2022/03/18 06:22:49;;;;;;;2.73;1.80;;;;;;;;;;4549038;28;20047;-66
2022/03/18 06:24:59;;;;;;;4.10;1.90;;;;;;;;;;4545116;28;38670;-66
2022/03/18 06:27:10;;;;;;;3.27;1.87;;;;;;;;;;4543769;28;33055;-67
2022/03/18 06:29:22;;;;;;;2.83;1.77;;;;;;;;;;4544102;28;20035;-67
2022/03/18 06:31:33;;;;;;;2.43;1.70;;;;;;;;;;4547455;28;20044;-67
2022/03/18 06:33:44;;;;;;;2.65;2.00;;;;;;;;;;4542899;28;20615;-67
2022/03/18 06:35:55;;;;;;;3.33;1.80;;;;;;;;;;4546492;28;20037;-68
2022/03/18 06:38:05;;;;;;;3.37;2.13;;;;;;;;;;4546191;28;20036;-68
2022/03/18 06:40:15;;;;;;;3.50;1.90;;;;;;;;;;4545112;28;20083;-67
2022/03/18 06:42:26;;;;;;;3.47;1.80;;;;;;;;;;4546765;28;20029;-67
2022/03/18 06:44:36;;;;;;;2.67;1.70;;;;;;;;;;4546565;28;20052;-67
2022/03/18 06:46:47;;;;;;;3.83;1.90;;;;;;;;;;4543132;28;20520;-66
2022/03/18 06:48:57;;;;;;;2.30;1.87;;;;;;;;;;4550537;28;20037;-67
2022/03/18 06:51:08;;;;;;;3.97;2.17;;;;;;;;;;4546002;28;20805;-66
2022/03/18 06:53:19;;;;;;;2.63;1.90;;;;;;;;;;4546799;28;20279;-67
2022/03/18 06:55:29;;;;;;;2.47;1.80;;;;;;;;;;4545473;28;20035;-66
2022/03/18 06:57:42;;;;;;;2.97;1.83;;;;;;;;;;4546761;28;20036;-66
2022/03/18 06:59:52;;;;;;;3.20;1.80;;;;;;;;;;4545206;28;20040;-66
2022/03/18 07:02:03;;;;;;;2.93;1.90;;;;;;;;;;4544641;28;20025;-66
2022/03/18 07:04:14;;;;;;;2.97;2.03;;;;;;;;;;4546397;28;20053;-67
2022/03/18 07:06:24;;;;;;;3.10;2.17;;;;;;;;;;4544724;28;21720;-66
2022/03/18 07:08:35;;;;;;;2.80;1.90;;;;;;;;;;4544390;28;27363;-66
2022/03/18 07:10:45;;;;;;;3.77;2.10;;;;;;;;;;4545633;28;20270;-67
2022/03/18 07:12:56;;;;;;;3.67;2.37;;;;;;;;;;4544218;28;20045;-67
2022/03/18 07:15:07;;;;;;;3.73;2.17;;;;;;;;;;4543504;28;20139;-66
2022/03/18 07:19:47;;;;;;;3.25;2.10;;;;;;;;;;4545393;28;20356;-66
2022/03/18 07:21:57;;;;;;;3.33;2.00;;;;;;;;;;4546491;28;20099;-66
2022/03/18 07:24:08;;;;;;;3.27;2.10;;;;;;;;;;4544225;28;35479;-67
2022/03/18 07:26:18;;;;;;;4.10;2.50;;;;;;;;;;4543337;28;24191;-66
2022/03/18 07:28:28;;;;;;;2.67;2.17;;;;;;;;;;4543494;28;20468;-66
2022/03/18 07:31:02;;;;;;;4.07;2.23;;;;;;;;;;4544620;28;20033;-66
2022/03/18 07:33:12;;;;;;;4.55;2.40;;;;;;;;;;4544987;28;20157;-66
2022/03/18 07:35:23;;;;;;;4.87;2.50;;;;;;;;;;4545101;28;20147;-66
2022/03/18 07:37:33;;;;;;;4.50;2.57;;;;;;;;;;4544832;28;20083;-66
2022/03/18 07:39:44;;;;;;;5.87;2.67;;;;;;;;;;4544901;28;20041;-66
2022/03/18 07:41:54;;;;;;;5.30;2.47;;;;;;;;;;4546562;28;20032;-66
2022/03/18 07:44:05;;;;;;;3.97;2.23;;;;;;;;;;4546371;28;20606;-66
2022/03/18 07:46:17;;;;;;;3.40;2.30;;;;;;;;;;4545048;28;20086;-65
2022/03/18 07:51:26;;;;;;;3.63;2.17;;;;;;;;;;4491864;28;20093;-68
2022/03/18 07:53:37;;;;;;;4.10;2.40;;;;;;;;;;4480400;28;20162;-68
2022/03/18 07:55:48;;;;;;;4.03;2.33;;;;;;;;;;4497866;28;20049;-68
2022/03/18 07:57:59;;;;;;;4.60;2.27;;;;;;;;;;4482487;28;20113;-68
2022/03/18 08:00:11;;;;;;;4.03;2.40;;;;;;;;;;4508556;28;20081;-68
2022/03/18 08:02:27;;;;;;;3.47;2.30;;;;;;;;;;4515035;28;20284;-68
2022/03/18 08:04:37;;;;;;;4.10;2.20;;;;;;;;;;4514808;28;20164;-68
2022/03/18 08:06:48;;;;;;;3.83;2.23;;;;;;;;;;4513954;28;20055;-68
2022/03/18 08:08:58;;;;;;;3.27;2.40;;;;;;;;;;4512643;28;24993;-68
2022/03/18 08:11:08;;;;;;;4.40;2.40;;;;;;;;;;4514999;28;20034;-68
2022/03/18 08:13:19;;;;;;;5.40;2.50;;;;;;;;;;4515185;28;20041;-67
2022/03/18 08:15:30;;;;;;;5.53;2.50;;;;;;;;;;4515475;28;20053;-67
2022/03/18 08:17:42;;;;;;;4.67;2.40;;;;;;;;;;4494351;28;20466;-67
2022/03/18 08:19:53;;;;;;;4.85;2.67;;;;;;;;;;4515354;28;20129;-67
2022/03/18 08:22:04;;;;;;;3.67;2.40;;;;;;;;;;4500777;28;20044;-67
2022/03/18 08:24:14;;;;;;;3.38;2.10;;;;;;;;;;4502064;28;20096;-67
2022/03/18 08:26:26;;;;;;;4.60;2.53;;;;;;;;;;4516081;28;20080;-66
2022/03/18 08:28:37;;;;;;;3.70;2.45;;;;;;;;;;4515334;28;20064;-67
2022/03/18 08:30:48;;;;;;;5.37;2.70;;;;;;;;;;4500763;28;20038;-66
2022/03/18 08:32:58;;;;;;;5.10;2.80;;;;;;;;;;4516067;28;20109;-67
2022/03/18 08:35:09;;;;;;;4.33;2.70;;;;;;;;;;4514787;28;20038;-67
2022/03/18 08:37:56;;;;;;;3.53;2.50;;;;;;;;;;4514579;28;20543;-66
2022/03/18 08:39:51;;;;;;;5.00;2.72;;;;;;;;;;4500548;28;20034;-67
2022/03/18 08:42:02;;;;;;;4.70;2.75;;;;;;;;;;4515357;28;20033;-67
2022/03/18 08:44:14;;;;;;;5.63;2.97;;;;;;;;;;4498720;28;20046;-67
2022/03/18 08:46:24;;;;;;;4.97;2.75;;;;;;;;;;4515509;28;20046;-66
2022/03/18 08:48:35;;;;;;;5.07;2.70;;;;;;;;;;4515177;28;20037;-67
2022/03/18 08:50:45;;;;;;;6.70;2.97;;;;;;;;;;4499580;28;20057;-68
2022/03/18 08:52:56;;;;;;;6.93;2.50;;;;;;;;;;4515003;28;20119;-67
2022/03/18 08:55:08;;;;;;;5.70;3.15;;;;;;;;;;4515333;28;20029;-67
2022/03/18 08:57:18;;;;;;;5.78;2.88;;;;;;;;;;4498153;28;21119;-67
2022/03/18 08:59:29;;;;;;;5.20;2.87;;;;;;;;;;4515624;28;20088;-67
2022/03/18 09:01:39;;;;;;;4.67;2.80;;;;;;;;;;4515750;28;20083;-67
2022/03/18 09:03:50;;;;;;;6.60;2.40;;;;;;;;;;4515468;28;20859;-67
2022/03/18 09:06:01;;;;;;;4.97;2.40;;;;;;;;;;4515379;28;20164;-68
2022/03/18 09:08:11;;;;;;;5.83;2.40;;;;;;;;;;4514522;28;20029;-68
2022/03/18 09:10:21;;;;;;;5.87;2.37;;;;;;;;;;4514823;28;20068;-66
2022/03/18 09:12:32;;;;;;;3.80;1.97;;;;;;;;;;4515000;28;20073;-66
2022/03/18 09:14:42;;;;;;;3.63;1.67;;;;;;;;;;4498567;28;20140;-66
2022/03/18 09:16:53;;;;;;;4.20;1.80;;;;;;;;;;4497787;28;20078;-66
2022/03/18 09:19:08;;;;;;;3.57;1.57;;;;;;;;;;4515229;28;20038;-66
2022/03/18 09:21:18;;;;;;;3.70;1.75;;;;;;;;;;4498482;28;20545;-66
2022/03/18 09:23:29;;;;;;;5.30;1.90;;;;;;;;;;4498006;28;20034;-66
2022/03/18 09:25:39;;;;;;;4.43;1.70;;;;;;;;;;4498301;28;20474;-66
2022/03/18 09:27:51;;;;;;;4.27;1.90;;;;;;;;;;4514771;28;20037;-66
2022/03/18 09:30:02;;;;;;;3.67;1.67;;;;;;;;;;4516951;28;20021;-66
2022/03/18 09:32:12;;;;;;;4.93;2.05;;;;;;;;;;4518400;28;20030;-66
2022/03/18 09:34:24;;;;;;;5.03;1.77;;;;;;;;;;4518429;28;20033;-66
2022/03/18 09:36:35;;;;;;;4.90;1.92;;;;;;;;;;4518795;28;20032;-66
2022/03/18 09:38:46;;;;;;;4.93;1.80;;;;;;;;;;4517281;28;20104;-66
2022/03/18 09:40:57;;;;;;;5.70;1.92;;;;;;;;;;4518244;28;20048;-66
2022/03/18 09:43:09;;;;;;;2.93;1.57;;;;;;;;;;4501872;28;20896;-66
2022/03/18 09:45:31;;;;;;;3.05;1.48;;;;;;;;;;4518142;28;20033;-66
2022/03/18 09:47:42;;;;;;;3.25;1.17;;;;;;;;;;4517718;28;20041;-67
2022/03/18 09:49:52;;;;;;;4.38;1.80;;;;;;;;;;4517556;28;20029;-66
2022/03/18 09:52:04;;;;;;;4.67;1.80;;;;;;;;;;4495797;28;20043;-66
2022/03/18 09:54:15;;;;;;;;;;;;;;;;;;4482495;28;20034;-67
2022/03/18 09:56:25;;;;;;;5.28;1.88;;;;;;;;;;4501927;28;19918;-66
2022/03/18 09:58:36;;;;;;;5.33;1.80;;;;;;;;;;4518715;28;20041;-66
2022/03/18 10:00:46;;;;;;;3.67;1.73;;;;;;;;;;4503465;28;20161;-66
2022/03/18 10:03:08;;;;;;;3.93;2.00;;;;;;;;;;4521441;28;20045;-66
2022/03/18 10:05:19;;;;;;;3.97;1.67;;;;;;;;;;4486348;28;20049;-66
2022/03/18 10:07:29;;;;;;;3.53;1.50;;;;;;;;;;4522210;28;20037;-67
2022/03/18 10:09:40;;;;;;;4.30;2.07;;;;;;;;;;4506461;28;20041;-67
2022/03/18 10:11:51;;;;;;;3.92;1.77;;;;;;;;;;4521547;28;20044;-67
2022/03/18 10:14:03;;;;;;;4.43;1.87;;;;;;;;;;4522084;28;20048;-66
2022/03/18 10:16:22;;;;;;;4.15;1.63;;;;;;;;;;4521544;28;20095;-67
2022/03/18 10:18:32;;;;;;;6.43;1.98;;;;;;;;;;4520437;28;20030;-67
2022/03/18 10:20:45;;;;;;;3.43;1.67;;;;;;;;;;4520343;28;20034;-67
2022/03/18 10:23:09;;;;;;;4.20;1.60;;;;;;;;;;4521405;28;20091;-66
2022/03/18 10:25:39;;;;;;;4.65;2.00;;;;;;;;;;4521734;28;20988;-67
2022/03/18 10:27:50;;;;;;;2.88;1.48;;;;;;;;;;4521219;28;20072;-66
2022/03/18 10:30:00;;;;;;;2.63;1.50;;;;;;;;;;4509424;28;20463;-67
2022/03/18 10:32:11;;;;;;;4.50;2.00;;;;;;;;;;4522335;28;21048;-66
2022/03/18 10:37:08;;;;;;;3.80;2.10;;;;;;;;;;4520928;28;20045;-66
2022/03/18 10:39:25;;;;;;;4.38;1.83;;;;;;;;;;4503967;28;20046;-66
2022/03/18 10:41:37;;;;;;;4.20;1.67;;;;;;;;;;4520198;28;20602;-66
2022/03/18 10:43:55;;;;;;;4.75;2.00;;;;;;;;;;4521739;28;20033;-66
2022/03/18 10:46:07;;;;;;;4.35;1.98;;;;;;;;;;4497402;28;20031;-66
2022/03/18 10:48:18;;;;;;;2.65;1.60;;;;;;;;;;4521605;28;20160;-66
2022/03/18 10:50:29;;;;;;;3.95;1.77;;;;;;;;;;4519589;28;20084;-65
2022/03/18 10:52:48;;;;;;;4.43;1.95;;;;;;;;;;4498180;28;20043;-66
2022/03/18 10:55:29;;;;;;;3.80;1.88;;;;;;;;;;4520988;28;20044;-66
2022/03/18 10:57:40;;;;;;;3.85;1.60;;;;;;;;;;4520910;28;20041;-66
2022/03/18 10:59:50;;;;;;;4.77;1.90;;;;;;;;;;4502154;28;20052;-65
2022/03/18 11:02:05;;;;;;;3.97;1.97;;;;;;;;;;4506805;28;20398;-66
2022/03/18 11:04:16;;;;;;;3.55;1.90;;;;;;;;;;4521467;28;20143;-66
2022/03/18 11:06:26;;;;;;;5.90;2.10;;;;;;;;;;4521666;28;20042;-66
2022/03/18 11:08:47;;;;;;;4.30;1.90;;;;;;;;;;4505110;28;20041;-66
2022/03/18 11:13:47;;;;;;;4.07;1.98;;;;;;;;;;4494952;28;20735;-66
2022/03/18 11:15:58;;;;;;;4.13;1.83;;;;;;;;;;4520159;28;20157;-66
2022/03/18 11:18:11;;;;;;;4.63;1.87;;;;;;;;;;4498553;28;20157;-66
2022/03/18 11:20:24;;;;;;;3.88;1.70;;;;;;;;;;4503085;28;20061;-66
2022/03/18 11:22:35;;;;;;;4.45;1.88;;;;;;;;;;4518543;28;20040;-66
2022/03/18 11:24:47;;;;;;;4.15;1.75;;;;;;;;;;4519563;28;20044;-66
2022/03/18 11:26:57;;;;;;;;;;;;;;;;;;4520238;28;20730;-66
2022/03/18 11:29:13;;;;;;;3.08;1.60;;;;;;;;;;4504776;28;19923;-66
2022/03/18 11:31:23;;;;;;;4.53;1.60;;;;;;;;;;4503839;28;20038;-66
2022/03/18 11:33:37;;;;;;;3.50;1.70;;;;;;;;;;4519684;28;30015;-66
2022/03/18 11:35:47;;;;;;;3.28;1.60;;;;;;;;;;4521331;28;20033;-66
2022/03/18 11:38:05;;;;;;;4.23;1.87;;;;;;;;;;4521530;28;20052;-66
2022/03/18 11:40:23;;;;;;;2.80;1.55;;;;;;;;;;4505089;28;20042;-66
2022/03/18 11:42:33;;;;;;;3.92;1.50;;;;;;;;;;4520741;28;20621;-66
2022/03/18 11:44:58;;;;;;;3.17;1.20;;;;;;;;;;4503287;28;21905;-66
2022/03/18 11:47:20;;;;;;;2.92;1.30;;;;;;;;;;4520913;28;20034;-67
2022/03/18 11:49:31;;;;;;;3.38;1.63;;;;;;;;;;4519411;28;20045;-66
2022/03/18 11:51:46;;;;;;;2.53;1.40;;;;;;;;;;4520596;28;20036;-67
2022/03/18 11:53:59;;;;;;;3.80;1.65;;;;;;;;;;4498660;28;20078;-66
2022/03/18 11:56:11;;;;;;;3.28;1.60;;;;;;;;;;4520575;28;20033;-66
2022/03/18 11:58:29;;;;;;;3.63;1.33;;;;;;;;;;4521106;28;20037;-66
2022/03/18 12:00:42;;;;;;;3.47;1.50;;;;;;;;;;4505790;28;20064;-67
2022/03/18 12:02:53;;;;;;;1.55;0.95;;;;;;;;;;4519559;28;20044;-66
2022/03/18 12:05:05;;;;;;;2.53;1.20;;;;;;;;;;4520629;28;20421;-66
2022/03/18 12:07:30;;;;;;;2.00;1.00;;;;;;;;;;4520769;28;20042;-66
2022/03/18 12:09:47;;;;;;;2.05;1.20;;;;;;;;;;4519470;28;20370;-66
2022/03/18 12:12:14;;;;;;;2.83;1.23;;;;;;;;;;4518626;28;20200;-67
2022/03/18 12:14:24;;;;;;;2.08;1.10;;;;;;;;;;4519290;28;20029;-67
2022/03/18 12:16:35;;;;;;;3.60;1.47;;;;;;;;;;4519991;28;20037;-67
2022/03/18 12:18:46;;;;;;;2.80;1.20;;;;;;;;;;4520589;28;20037;-67
2022/03/18 12:20:57;;;;;;;3.15;1.30;;;;;;;;;;4499027;28;20037;-66
2022/03/18 12:23:08;;;;;;;4.25;1.58;;;;;;;;;;4519441;28;20033;-66
2022/03/18 12:25:23;;;;;;;3.25;1.20;;;;;;;;;;4518446;28;20050;-66
2022/03/18 12:27:36;;;;;;;3.28;1.45;;;;;;;;;;4519577;28;20064;-66
2022/03/18 12:29:47;;;;;;;3.25;1.27;;;;;;;;;;4518977;28;20116;-66
2022/03/18 12:32:13;;;;;;;2.67;1.20;;;;;;;;;;4520162;28;20048;-66
2022/03/18 12:34:24;;;;;;;2.05;1.25;;;;;;;;;;4496277;28;20156;-66
2022/03/18 12:36:39;;;;;;;4.47;2.40;;;;;;;;;;4498615;28;26872;-66
2022/03/18 12:38:50;;;;;;;4.15;1.80;;;;;;;;;;4520632;28;20034;-66
2022/03/18 12:41:00;;;;;;;2.70;1.33;;;;;;;;;;4519479;28;20041;-66
2022/03/18 12:43:15;;;;;;;4.07;1.57;;;;;;;;;;4520617;28;20033;-65
2022/03/18 12:45:38;;;;;;;3.63;1.70;;;;;;;;;;4520365;28;20052;-65
2022/03/18 12:47:50;;;;;;;2.58;1.40;;;;;;;;;;4520651;28;21345;-65
2022/03/18 12:50:00;;;;;;;1.85;1.10;;;;;;;;;;4519422;28;37221;-65
2022/03/18 12:52:12;;;;;;;3.17;1.50;;;;;;;;;;4518063;28;20127;-65
2022/03/18 12:54:23;;;;;;;2.97;1.10;;;;;;;;;;4496314;28;20904;-65
2022/03/18 12:56:47;;;;;;;2.90;1.23;;;;;;;;;;4499072;28;20106;-65
2022/03/18 12:58:57;;;;;;;2.47;1.30;;;;;;;;;;4519160;28;20509;-65
2022/03/18 13:01:11;;;;;;;1.93;1.10;;;;;;;;;;4500336;28;20507;-65
2022/03/18 13:03:23;;;;;;;2.63;1.38;;;;;;;;;;4505535;28;20042;-65
2022/03/18 13:05:34;;;;;;;3.28;1.10;;;;;;;;;;4500872;28;20050;-65
2022/03/18 13:07:44;;;;;;;3.47;1.20;;;;;;;;;;4523695;28;20893;-66
2022/03/18 13:09:55;;;;;;;2.80;1.20;;;;;;;;;;4523459;28;20641;-65
2022/03/18 13:12:23;;;;;;;1.85;0.90;;;;;;;;;;4523174;28;20037;-65
2022/03/18 13:14:35;;;;;;;3.25;1.33;;;;;;;;;;4522325;28;21227;-65
2022/03/18 13:16:45;;;;;;;2.95;1.00;;;;;;;;;;4522221;28;20083;-65
2022/03/18 13:18:58;;;;;;;18.50;16.50;;;;;;;;;;4521995;28;20431;-65
2022/03/18 13:21:09;;;;;;;20.10;16.70;;;;;;;;;;4522501;28;20176;-66
2022/03/18 13:23:20;;;;;;;19.43;16.57;;;;;;;;;;4522172;28;20421;-65
2022/03/18 13:25:30;;;;;;;19.53;16.93;;;;;;;;;;4523036;28;20120;-65
2022/03/18 13:27:41;;;;;;;18.90;16.57;;;;;;;;;;4523602;28;20034;-65
2022/03/18 13:34:51;;;;;;;19.80;17.02;;;;;;;;;;4522666;28;20065;-66
2022/03/18 13:37:12;;;;;;;20.63;18.00;;;;;;;;;;4508510;28;20037;-66
2022/03/18 13:39:26;;;;;;;19.30;17.08;;;;;;;;;;4521801;28;20107;-65
2022/03/18 13:41:55;;;;;;;20.35;16.92;;;;;;;;;;4522838;28;20843;-66